sensor_id;sensor_type;location;lat;lon;timestamp;P1;durP1;ratioP1;P2;durP2;ratioP2
35188;SDS011;21762;54.480;18.556;2022-07-24T00:00:38;3.55;;;2.35;;
35188;SDS011;21762;54.480;18.556;2022-07-24T00:03:07;2.97;;;1.92;;
35188;SDS011;21762;54.480;18.556;2022-07-24T00:05:35;3.33;;;2.00;;
35188;SDS011;21762;54.480;18.556;2022-07-24T00:08:03;7.88;;;2.58;;
35188;SDS011;21762;54.480;18.556;2022-07-24T00:10:32;6.15;;;2.10;;
35188;SDS011;21762;54.480;18.556;2022-07-24T00:13:00;5.30;;;1.98;;
35188;SDS011;21762;54.480;18.556;2022-07-24T00:15:30;4.38;;;2.00;;
35188;SDS011;21762;54.480;18.556;2022-07-24T00:17:58;6.95;;;2.30;;
35188;SDS011;21762;54.480;18.556;2022-07-24T00:20:26;7.80;;;2.58;;
35188;SDS011;21762;54.480;18.556;2022-07-24T00:22:54;5.95;;;2.30;;
35188;SDS011;21762;54.480;18.556;2022-07-24T00:25:22;11.52;;;2.47;;
35188;SDS011;21762;54.480;18.556;2022-07-24T00:27:51;7.32;;;2.17;;
35188;SDS011;21762;54.480;18.556;2022-07-24T00:30:19;4.47;;;2.00;;
35188;SDS011;21762;54.480;18.556;2022-07-24T00:32:48;6.32;;;2.20;;
35188;SDS011;21762;54.480;18.556;2022-07-24T00:35:17;4.90;;;2.22;;
35188;SDS011;21762;54.480;18.556;2022-07-24T00:37:45;5.53;;;2.20;;
35188;SDS011;21762;54.480;18.556;2022-07-24T00:40:13;5.50;;;2.17;;
35188;SDS011;21762;54.480;18.556;2022-07-24T00:42:42;2.90;;;1.98;;
35188;SDS011;21762;54.480;18.556;2022-07-24T00:45:10;3.22;;;1.40;;
35188;SDS011;21762;54.480;18.556;2022-07-24T00:47:39;5.38;;;1.85;;
35188;SDS011;21762;54.480;18.556;2022-07-24T00:50:09;3.60;;;1.48;;
35188;SDS011;21762;54.480;18.556;2022-07-24T00:52:37;3.50;;;1.77;;
35188;SDS011;21762;54.480;18.556;2022-07-24T00:55:06;2.20;;;1.40;;
35188;SDS011;21762;54.480;18.556;2022-07-24T00:57:35;2.72;;;1.42;;
35188;SDS011;21762;54.480;18.556;2022-07-24T01:00:04;2.60;;;1.30;;
35188;SDS011;21762;54.480;18.556;2022-07-24T01:02:33;4.10;;;1.10;;
35188;SDS011;21762;54.480;18.556;2022-07-24T01:05:02;4.82;;;2.10;;
35188;SDS011;21762;54.480;18.556;2022-07-24T01:07:32;4.03;;;1.40;;
35188;SDS011;21762;54.480;18.556;2022-07-24T01:10:00;1.33;;;1.00;;
35188;SDS011;21762;54.480;18.556;2022-07-24T01:12:28;3.60;;;1.30;;
35188;SDS011;21762;54.480;18.556;2022-07-24T01:14:58;3.63;;;1.30;;
35188;SDS011;21762;54.480;18.556;2022-07-24T01:17:28;5.50;;;1.30;;
35188;SDS011;21762;54.480;18.556;2022-07-24T01:19:57;2.05;;;1.05;;
35188;SDS011;21762;54.480;18.556;2022-07-24T01:22:27;1.95;;;1.20;;
35188;SDS011;21762;54.480;18.556;2022-07-24T01:24:55;2.55;;;1.08;;
35188;SDS011;21762;54.480;18.556;2022-07-24T01:27:24;1.63;;;0.85;;
35188;SDS011;21762;54.480;18.556;2022-07-24T01:29:52;2.25;;;1.55;;
35188;SDS011;21762;54.480;18.556;2022-07-24T01:32:21;2.58;;;1.15;;
35188;SDS011;21762;54.480;18.556;2022-07-24T01:34:49;1.65;;;0.95;;
35188;SDS011;21762;54.480;18.556;2022-07-24T01:37:17;2.47;;;1.10;;
35188;SDS011;21762;54.480;18.556;2022-07-24T01:39:47;1.98;;;0.80;;
35188;SDS011;21762;54.480;18.556;2022-07-24T01:42:15;3.25;;;0.88;;
35188;SDS011;21762;54.480;18.556;2022-07-24T01:44:43;0.85;;;0.75;;
35188;SDS011;21762;54.480;18.556;2022-07-24T01:47:11;1.23;;;0.77;;
35188;SDS011;21762;54.480;18.556;2022-07-24T01:49:39;0.98;;;0.63;;
35188;SDS011;21762;54.480;18.556;2022-07-24T01:52:08;1.10;;;0.80;;
35188;SDS011;21762;54.480;18.556;2022-07-24T01:54:36;1.33;;;0.70;;
35188;SDS011;21762;54.480;18.556;2022-07-24T01:57:06;1.60;;;0.60;;
35188;SDS011;21762;54.480;18.556;2022-07-24T01:59:34;1.23;;;0.60;;
35188;SDS011;21762;54.480;18.556;2022-07-24T02:02:02;1.90;;;0.70;;
35188;SDS011;21762;54.480;18.556;2022-07-24T02:04:30;1.95;;;0.57;;
35188;SDS011;21762;54.480;18.556;2022-07-24T02:06:58;1.08;;;0.65;;
35188;SDS011;21762;54.480;18.556;2022-07-24T02:09:27;0.50;;;0.50;;
35188;SDS011;21762;54.480;18.556;2022-07-24T02:11:55;0.60;;;0.60;;
35188;SDS011;21762;54.480;18.556;2022-07-24T02:14:26;1.13;;;0.70;;
35188;SDS011;21762;54.480;18.556;2022-07-24T02:16:54;0.88;;;0.80;;
35188;SDS011;21762;54.480;18.556;2022-07-24T02:19:22;2.08;;;0.50;;
35188;SDS011;21762;54.480;18.556;2022-07-24T02:21:50;1.95;;;0.60;;
35188;SDS011;21762;54.480;18.556;2022-07-24T02:24:19;0.50;;;0.50;;
35188;SDS011;21762;54.480;18.556;2022-07-24T02:26:47;1.85;;;1.67;;
35188;SDS011;21762;54.480;18.556;2022-07-24T02:29:15;0.70;;;0.60;;
35188;SDS011;21762;54.480;18.556;2022-07-24T02:31:45;0.98;;;0.60;;
35188;SDS011;21762;54.480;18.556;2022-07-24T02:34:13;0.30;;;0.30;;
35188;SDS011;21762;54.480;18.556;2022-07-24T02:36:42;0.65;;;0.43;;
35188;SDS011;21762;54.480;18.556;2022-07-24T02:39:10;0.40;;;0.35;;
35188;SDS011;21762;54.480;18.556;2022-07-24T02:41:38;0.50;;;0.47;;
35188;SDS011;21762;54.480;18.556;2022-07-24T02:44:06;2.50;;;0.50;;
35188;SDS011;21762;54.480;18.556;2022-07-24T02:46:35;0.40;;;0.40;;
35188;SDS011;21762;54.480;18.556;2022-07-24T02:49:04;0.60;;;0.60;;
35188;SDS011;21762;54.480;18.556;2022-07-24T02:51:34;0.40;;;0.40;;
35188;SDS011;21762;54.480;18.556;2022-07-24T02:54:02;0.77;;;0.77;;
35188;SDS011;21762;54.480;18.556;2022-07-24T02:56:30;0.80;;;0.80;;
35188;SDS011;21762;54.480;18.556;2022-07-24T02:58:58;1.13;;;0.95;;
35188;SDS011;21762;54.480;18.556;2022-07-24T03:01:27;1.88;;;1.00;;
35188;SDS011;21762;54.480;18.556;2022-07-24T03:03:55;1.52;;;1.23;;
35188;SDS011;21762;54.480;18.556;2022-07-24T03:06:24;5.30;;;1.80;;
35188;SDS011;21762;54.480;18.556;2022-07-24T03:08:53;2.55;;;1.73;;
35188;SDS011;21762;54.480;18.556;2022-07-24T03:11:21;2.17;;;1.60;;
35188;SDS011;21762;54.480;18.556;2022-07-24T03:13:49;4.72;;;2.45;;
35188;SDS011;21762;54.480;18.556;2022-07-24T03:16:17;3.80;;;2.40;;
35188;SDS011;21762;54.480;18.556;2022-07-24T03:18:46;2.92;;;2.15;;
35188;SDS011;21762;54.480;18.556;2022-07-24T03:21:15;4.28;;;2.58;;
35188;SDS011;21762;54.480;18.556;2022-07-24T03:23:58;3.42;;;2.78;;
35188;SDS011;21762;54.480;18.556;2022-07-24T03:26:26;3.38;;;2.58;;
35188;SDS011;21762;54.480;18.556;2022-07-24T03:28:54;3.83;;;3.13;;
35188;SDS011;21762;54.480;18.556;2022-07-24T03:31:23;6.97;;;2.90;;
35188;SDS011;21762;54.480;18.556;2022-07-24T03:33:51;4.50;;;3.22;;
35188;SDS011;21762;54.480;18.556;2022-07-24T03:36:19;5.65;;;4.07;;
35188;SDS011;21762;54.480;18.556;2022-07-24T03:38:47;5.97;;;3.58;;
35188;SDS011;21762;54.480;18.556;2022-07-24T03:41:17;6.25;;;3.25;;
35188;SDS011;21762;54.480;18.556;2022-07-24T03:43:45;5.47;;;3.53;;
35188;SDS011;21762;54.480;18.556;2022-07-24T03:46:13;5.28;;;3.40;;
35188;SDS011;21762;54.480;18.556;2022-07-24T03:48:41;4.93;;;3.65;;
35188;SDS011;21762;54.480;18.556;2022-07-24T03:51:09;6.68;;;3.60;;
35188;SDS011;21762;54.480;18.556;2022-07-24T03:53:37;4.93;;;3.33;;
35188;SDS011;21762;54.480;18.556;2022-07-24T03:56:06;5.40;;;3.85;;
35188;SDS011;21762;54.480;18.556;2022-07-24T03:58:37;5.82;;;3.63;;
35188;SDS011;21762;54.480;18.556;2022-07-24T04:01:05;10.00;;;3.72;;
35188;SDS011;21762;54.480;18.556;2022-07-24T04:03:34;5.47;;;3.63;;
35188;SDS011;21762;54.480;18.556;2022-07-24T04:06:02;7.45;;;3.67;;
35188;SDS011;21762;54.480;18.556;2022-07-24T04:08:31;7.45;;;5.00;;
35188;SDS011;21762;54.480;18.556;2022-07-24T04:10:59;7.55;;;4.93;;
35188;SDS011;21762;54.480;18.556;2022-07-24T04:13:28;6.15;;;4.78;;
35188;SDS011;21762;54.480;18.556;2022-07-24T04:15:58;6.78;;;4.07;;
35188;SDS011;21762;54.480;18.556;2022-07-24T04:18:26;11.45;;;5.38;;
35188;SDS011;21762;54.480;18.556;2022-07-24T04:20:54;8.63;;;4.47;;
35188;SDS011;21762;54.480;18.556;2022-07-24T04:23:23;9.55;;;4.90;;
35188;SDS011;21762;54.480;18.556;2022-07-24T04:25:51;9.57;;;3.70;;
35188;SDS011;21762;54.480;18.556;2022-07-24T04:28:19;9.82;;;4.03;;
35188;SDS011;21762;54.480;18.556;2022-07-24T04:30:47;11.73;;;4.25;;
35188;SDS011;21762;54.480;18.556;2022-07-24T04:33:16;4.80;;;3.90;;
35188;SDS011;21762;54.480;18.556;2022-07-24T04:35:44;5.32;;;4.10;;
35188;SDS011;21762;54.480;18.556;2022-07-24T04:38:13;5.97;;;3.65;;
35188;SDS011;21762;54.480;18.556;2022-07-24T04:40:41;6.72;;;3.80;;
35188;SDS011;21762;54.480;18.556;2022-07-24T04:43:09;5.20;;;3.17;;
35188;SDS011;21762;54.480;18.556;2022-07-24T04:45:37;3.72;;;3.30;;
35188;SDS011;21762;54.480;18.556;2022-07-24T04:48:06;9.48;;;3.38;;
35188;SDS011;21762;54.480;18.556;2022-07-24T04:50:35;5.45;;;3.80;;
35188;SDS011;21762;54.480;18.556;2022-07-24T04:53:03;6.53;;;3.25;;
35188;SDS011;21762;54.480;18.556;2022-07-24T04:55:31;4.80;;;2.83;;
35188;SDS011;21762;54.480;18.556;2022-07-24T04:58:00;6.00;;;3.05;;
35188;SDS011;21762;54.480;18.556;2022-07-24T05:00:28;6.68;;;3.95;;
35188;SDS011;21762;54.480;18.556;2022-07-24T05:02:56;4.38;;;3.00;;
35188;SDS011;21762;54.480;18.556;2022-07-24T05:05:24;5.65;;;3.10;;
35188;SDS011;21762;54.480;18.556;2022-07-24T05:07:54;5.25;;;2.75;;
35188;SDS011;21762;54.480;18.556;2022-07-24T05:10:22;4.47;;;3.10;;
35188;SDS011;21762;54.480;18.556;2022-07-24T05:12:50;7.82;;;2.92;;
35188;SDS011;21762;54.480;18.556;2022-07-24T05:15:18;3.42;;;2.65;;
35188;SDS011;21762;54.480;18.556;2022-07-24T05:17:46;6.47;;;2.65;;
35188;SDS011;21762;54.480;18.556;2022-07-24T05:20:15;6.35;;;3.03;;
35188;SDS011;21762;54.480;18.556;2022-07-24T05:22:43;6.43;;;2.53;;
35188;SDS011;21762;54.480;18.556;2022-07-24T05:25:12;3.05;;;2.70;;
35188;SDS011;21762;54.480;18.556;2022-07-24T05:27:41;3.25;;;2.55;;
35188;SDS011;21762;54.480;18.556;2022-07-24T05:30:09;4.88;;;2.35;;
35188;SDS011;21762;54.480;18.556;2022-07-24T05:32:38;5.15;;;2.80;;
35188;SDS011;21762;54.480;18.556;2022-07-24T05:35:07;6.03;;;2.53;;
35188;SDS011;21762;54.480;18.556;2022-07-24T05:37:35;4.47;;;2.58;;
35188;SDS011;21762;54.480;18.556;2022-07-24T05:40:04;7.07;;;3.65;;
35188;SDS011;21762;54.480;18.556;2022-07-24T05:42:34;4.35;;;2.50;;
35188;SDS011;21762;54.480;18.556;2022-07-24T05:45:03;6.60;;;2.83;;
35188;SDS011;21762;54.480;18.556;2022-07-24T05:47:36;6.22;;;2.55;;
35188;SDS011;21762;54.480;18.556;2022-07-24T05:50:05;5.03;;;2.75;;
35188;SDS011;21762;54.480;18.556;2022-07-24T05:52:34;3.78;;;2.60;;
35188;SDS011;21762;54.480;18.556;2022-07-24T05:55:04;6.00;;;2.10;;
35188;SDS011;21762;54.480;18.556;2022-07-24T05:57:35;6.15;;;2.10;;
35188;SDS011;21762;54.480;18.556;2022-07-24T06:00:04;5.40;;;1.98;;
35188;SDS011;21762;54.480;18.556;2022-07-24T06:02:37;3.28;;;2.15;;
35188;SDS011;21762;54.480;18.556;2022-07-24T06:05:05;3.30;;;1.92;;
35188;SDS011;21762;54.480;18.556;2022-07-24T06:07:34;3.40;;;1.80;;
35188;SDS011;21762;54.480;18.556;2022-07-24T06:10:02;2.80;;;1.80;;
35188;SDS011;21762;54.480;18.556;2022-07-24T06:12:31;5.53;;;1.85;;
35188;SDS011;21762;54.480;18.556;2022-07-24T06:15:03;2.67;;;1.73;;
35188;SDS011;21762;54.480;18.556;2022-07-24T06:17:34;8.25;;;2.13;;
35188;SDS011;21762;54.480;18.556;2022-07-24T06:20:03;2.58;;;1.88;;
35188;SDS011;21762;54.480;18.556;2022-07-24T06:22:33;2.60;;;1.98;;
35188;SDS011;21762;54.480;18.556;2022-07-24T06:25:10;2.40;;;1.75;;
35188;SDS011;21762;54.480;18.556;2022-07-24T06:27:39;4.78;;;1.95;;
35188;SDS011;21762;54.480;18.556;2022-07-24T06:30:12;9.68;;;1.77;;
35188;SDS011;21762;54.480;18.556;2022-07-24T06:32:41;2.72;;;1.90;;
35188;SDS011;21762;54.480;18.556;2022-07-24T06:35:10;2.88;;;1.85;;
35188;SDS011;21762;54.480;18.556;2022-07-24T06:37:39;4.75;;;1.90;;
35188;SDS011;21762;54.480;18.556;2022-07-24T06:40:11;1.50;;;1.40;;
35188;SDS011;21762;54.480;18.556;2022-07-24T06:42:39;3.85;;;1.65;;
35188;SDS011;21762;54.480;18.556;2022-07-24T06:45:08;3.95;;;1.80;;
35188;SDS011;21762;54.480;18.556;2022-07-24T06:47:38;5.18;;;1.85;;
35188;SDS011;21762;54.480;18.556;2022-07-24T06:50:07;4.22;;;1.85;;
35188;SDS011;21762;54.480;18.556;2022-07-24T06:52:36;2.47;;;1.58;;
35188;SDS011;21762;54.480;18.556;2022-07-24T06:55:05;3.08;;;1.30;;
35188;SDS011;21762;54.480;18.556;2022-07-24T06:57:35;5.23;;;1.70;;
35188;SDS011;21762;54.480;18.556;2022-07-24T07:00:05;1.92;;;1.55;;
35188;SDS011;21762;54.480;18.556;2022-07-24T07:02:34;1.40;;;1.30;;
35188;SDS011;21762;54.480;18.556;2022-07-24T07:05:05;3.45;;;1.40;;
35188;SDS011;21762;54.480;18.556;2022-07-24T07:07:35;1.80;;;1.30;;
35188;SDS011;21762;54.480;18.556;2022-07-24T07:10:04;5.80;;;1.27;;
35188;SDS011;21762;54.480;18.556;2022-07-24T07:12:33;4.53;;;1.10;;
35188;SDS011;21762;54.480;18.556;2022-07-24T07:15:05;4.15;;;1.35;;
35188;SDS011;21762;54.480;18.556;2022-07-24T07:17:36;1.40;;;1.30;;
35188;SDS011;21762;54.480;18.556;2022-07-24T07:20:07;1.42;;;1.13;;
35188;SDS011;21762;54.480;18.556;2022-07-24T07:22:36;2.03;;;1.30;;
35188;SDS011;21762;54.480;18.556;2022-07-24T07:25:05;1.75;;;1.25;;
35188;SDS011;21762;54.480;18.556;2022-07-24T07:27:34;3.83;;;1.35;;
35188;SDS011;21762;54.480;18.556;2022-07-24T07:30:11;2.56;;;1.40;;
35188;SDS011;21762;54.480;18.556;2022-07-24T07:32:41;1.85;;;1.30;;
35188;SDS011;21762;54.480;18.556;2022-07-24T07:35:16;3.15;;;1.42;;
35188;SDS011;21762;54.480;18.556;2022-07-24T07:37:44;5.47;;;2.00;;
35188;SDS011;21762;54.480;18.556;2022-07-24T07:40:13;4.45;;;2.60;;
35188;SDS011;21762;54.480;18.556;2022-07-24T07:42:41;2.88;;;1.17;;
35188;SDS011;21762;54.480;18.556;2022-07-24T07:45:09;5.32;;;1.45;;
35188;SDS011;21762;54.480;18.556;2022-07-24T07:47:38;1.75;;;1.30;;
35188;SDS011;21762;54.480;18.556;2022-07-24T07:50:07;3.83;;;1.33;;
35188;SDS011;21762;54.480;18.556;2022-07-24T07:52:37;1.63;;;1.30;;
35188;SDS011;21762;54.480;18.556;2022-07-24T07:55:06;2.90;;;1.38;;
35188;SDS011;21762;54.480;18.556;2022-07-24T07:57:35;2.30;;;1.52;;
35188;SDS011;21762;54.480;18.556;2022-07-24T08:00:24;2.17;;;1.48;;
35188;SDS011;21762;54.480;18.556;2022-07-24T08:02:52;2.38;;;1.40;;
35188;SDS011;21762;54.480;18.556;2022-07-24T08:05:20;2.83;;;1.67;;
35188;SDS011;21762;54.480;18.556;2022-07-24T08:07:50;3.08;;;1.33;;
35188;SDS011;21762;54.480;18.556;2022-07-24T08:10:18;1.73;;;1.35;;
35188;SDS011;21762;54.480;18.556;2022-07-24T08:12:46;2.40;;;1.42;;
35188;SDS011;21762;54.480;18.556;2022-07-24T08:15:15;2.25;;;1.27;;
35188;SDS011;21762;54.480;18.556;2022-07-24T08:17:43;6.20;;;1.70;;
35188;SDS011;21762;54.480;18.556;2022-07-24T08:20:11;6.72;;;1.50;;
35188;SDS011;21762;54.480;18.556;2022-07-24T08:22:40;1.38;;;1.20;;
35188;SDS011;21762;54.480;18.556;2022-07-24T08:25:09;4.25;;;1.60;;
35188;SDS011;21762;54.480;18.556;2022-07-24T08:27:39;1.63;;;1.50;;
35188;SDS011;21762;54.480;18.556;2022-07-24T08:30:08;2.20;;;1.35;;
35188;SDS011;21762;54.480;18.556;2022-07-24T08:32:36;1.67;;;1.33;;
35188;SDS011;21762;54.480;18.556;2022-07-24T08:35:05;4.25;;;1.50;;
35188;SDS011;21762;54.480;18.556;2022-07-24T08:37:35;1.27;;;1.15;;
35188;SDS011;21762;54.480;18.556;2022-07-24T08:40:04;2.25;;;1.35;;
35188;SDS011;21762;54.480;18.556;2022-07-24T08:42:36;3.38;;;1.42;;
35188;SDS011;21762;54.480;18.556;2022-07-24T08:45:05;1.75;;;1.35;;
35188;SDS011;21762;54.480;18.556;2022-07-24T08:47:35;4.13;;;1.33;;
35188;SDS011;21762;54.480;18.556;2022-07-24T08:50:07;3.22;;;1.85;;
35188;SDS011;21762;54.480;18.556;2022-07-24T08:52:36;3.90;;;1.40;;
35188;SDS011;21762;54.480;18.556;2022-07-24T08:55:08;3.83;;;1.15;;
35188;SDS011;21762;54.480;18.556;2022-07-24T08:57:38;1.33;;;1.10;;
35188;SDS011;21762;54.480;18.556;2022-07-24T09:00:06;2.95;;;1.20;;
35188;SDS011;21762;54.480;18.556;2022-07-24T09:02:36;4.63;;;1.50;;
35188;SDS011;21762;54.480;18.556;2022-07-24T09:05:04;2.67;;;1.45;;
35188;SDS011;21762;54.480;18.556;2022-07-24T09:07:33;2.15;;;1.30;;
35188;SDS011;21762;54.480;18.556;2022-07-24T09:10:02;4.90;;;1.70;;
35188;SDS011;21762;54.480;18.556;2022-07-24T09:12:32;2.08;;;1.52;;
35188;SDS011;21762;54.480;18.556;2022-07-24T09:15:10;1.85;;;1.52;;
35188;SDS011;21762;54.480;18.556;2022-07-24T09:17:46;3.08;;;1.52;;
35188;SDS011;21762;54.480;18.556;2022-07-24T09:20:18;2.90;;;1.30;;
35188;SDS011;21762;54.480;18.556;2022-07-24T09:22:47;2.33;;;1.30;;
35188;SDS011;21762;54.480;18.556;2022-07-24T09:25:16;1.85;;;1.48;;
35188;SDS011;21762;54.480;18.556;2022-07-24T09:27:46;2.97;;;1.58;;
35188;SDS011;21762;54.480;18.556;2022-07-24T09:30:25;2.28;;;1.83;;
35188;SDS011;21762;54.480;18.556;2022-07-24T09:32:55;2.55;;;1.58;;
35188;SDS011;21762;54.480;18.556;2022-07-24T09:35:29;4.40;;;1.40;;
35188;SDS011;21762;54.480;18.556;2022-07-24T09:38:00;1.48;;;1.38;;
35188;SDS011;21762;54.480;18.556;2022-07-24T09:40:30;2.70;;;1.42;;
35188;SDS011;21762;54.480;18.556;2022-07-24T09:43:12;2.10;;;1.50;;
35188;SDS011;21762;54.480;18.556;2022-07-24T09:48:37;2.97;;;1.48;;
35188;SDS011;21762;54.480;18.556;2022-07-24T09:53:37;2.28;;;1.65;;
35188;SDS011;21762;54.480;18.556;2022-07-24T09:56:07;3.58;;;2.20;;
35188;SDS011;21762;54.480;18.556;2022-07-24T09:58:37;4.22;;;1.90;;
35188;SDS011;21762;54.480;18.556;2022-07-24T10:01:08;6.20;;;1.92;;
35188;SDS011;21762;54.480;18.556;2022-07-24T10:03:39;4.65;;;1.90;;
35188;SDS011;21762;54.480;18.556;2022-07-24T10:06:09;3.30;;;1.45;;
35188;SDS011;21762;54.480;18.556;2022-07-24T10:08:40;2.15;;;1.35;;
35188;SDS011;21762;54.480;18.556;2022-07-24T10:11:09;2.75;;;1.75;;
35188;SDS011;21762;54.480;18.556;2022-07-24T10:13:38;2.38;;;1.35;;
35188;SDS011;21762;54.480;18.556;2022-07-24T10:16:14;3.92;;;1.55;;
35188;SDS011;21762;54.480;18.556;2022-07-24T10:18:53;7.22;;;1.88;;
35188;SDS011;21762;54.480;18.556;2022-07-24T10:21:23;1.73;;;1.30;;
35188;SDS011;21762;54.480;18.556;2022-07-24T10:23:58;3.05;;;1.52;;
35188;SDS011;21762;54.480;18.556;2022-07-24T10:26:39;4.53;;;1.85;;
35188;SDS011;21762;54.480;18.556;2022-07-24T10:29:08;3.17;;;1.75;;
35188;SDS011;21762;54.480;18.556;2022-07-24T10:31:39;5.40;;;1.52;;
35188;SDS011;21762;54.480;18.556;2022-07-24T10:34:10;3.53;;;1.73;;
35188;SDS011;21762;54.480;18.556;2022-07-24T10:36:44;5.70;;;1.70;;
35188;SDS011;21762;54.480;18.556;2022-07-24T10:39:17;3.45;;;1.77;;
35188;SDS011;21762;54.480;18.556;2022-07-24T10:41:59;2.30;;;1.55;;
35188;SDS011;21762;54.480;18.556;2022-07-24T10:44:27;2.17;;;1.52;;
35188;SDS011;21762;54.480;18.556;2022-07-24T10:46:58;2.17;;;1.65;;
35188;SDS011;21762;54.480;18.556;2022-07-24T10:49:35;7.07;;;1.80;;
35188;SDS011;21762;54.480;18.556;2022-07-24T10:52:26;3.67;;;1.50;;
35188;SDS011;21762;54.480;18.556;2022-07-24T10:57:54;2.40;;;1.73;;
35188;SDS011;21762;54.480;18.556;2022-07-24T11:00:25;3.92;;;1.60;;
35188;SDS011;21762;54.480;18.556;2022-07-24T11:02:57;4.97;;;2.07;;
35188;SDS011;21762;54.480;18.556;2022-07-24T11:05:28;5.40;;;1.52;;
35188;SDS011;21762;54.480;18.556;2022-07-24T11:11:04;2.85;;;1.40;;
35188;SDS011;21762;54.480;18.556;2022-07-24T11:13:40;4.13;;;1.77;;
35188;SDS011;21762;54.480;18.556;2022-07-24T11:16:22;2.08;;;1.60;;
35188;SDS011;21762;54.480;18.556;2022-07-24T11:22:04;2.15;;;1.55;;
35188;SDS011;21762;54.480;18.556;2022-07-24T11:24:34;3.88;;;1.92;;
35188;SDS011;21762;54.480;18.556;2022-07-24T11:27:07;3.65;;;1.52;;
35188;SDS011;21762;54.480;18.556;2022-07-24T11:29:40;6.32;;;1.83;;
35188;SDS011;21762;54.480;18.556;2022-07-24T11:32:09;3.92;;;1.73;;
35188;SDS011;21762;54.480;18.556;2022-07-24T11:34:42;3.47;;;1.60;;
35188;SDS011;21762;54.480;18.556;2022-07-24T11:37:16;3.53;;;1.80;;
35188;SDS011;21762;54.480;18.556;2022-07-24T11:39:45;4.78;;;1.90;;
35188;SDS011;21762;54.480;18.556;2022-07-24T11:42:14;4.97;;;1.50;;
35188;SDS011;21762;54.480;18.556;2022-07-24T11:44:43;3.67;;;1.63;;
35188;SDS011;21762;54.480;18.556;2022-07-24T11:47:14;3.50;;;1.55;;
35188;SDS011;21762;54.480;18.556;2022-07-24T11:49:43;5.55;;;2.15;;
35188;SDS011;21762;54.480;18.556;2022-07-24T11:52:13;5.32;;;2.70;;
35188;SDS011;21762;54.480;18.556;2022-07-24T11:54:45;4.05;;;1.75;;
35188;SDS011;21762;54.480;18.556;2022-07-24T11:57:16;4.53;;;2.38;;
35188;SDS011;21762;54.480;18.556;2022-07-24T11:59:56;6.40;;;1.70;;
35188;SDS011;21762;54.480;18.556;2022-07-24T12:02:25;2.25;;;1.38;;
35188;SDS011;21762;54.480;18.556;2022-07-24T12:04:53;4.38;;;1.80;;
35188;SDS011;21762;54.480;18.556;2022-07-24T12:07:24;3.17;;;1.60;;
35188;SDS011;21762;54.480;18.556;2022-07-24T12:09:54;3.85;;;1.80;;
35188;SDS011;21762;54.480;18.556;2022-07-24T12:12:24;3.53;;;2.10;;
35188;SDS011;21762;54.480;18.556;2022-07-24T12:14:59;4.03;;;1.73;;
35188;SDS011;21762;54.480;18.556;2022-07-24T12:17:29;4.00;;;1.65;;
35188;SDS011;21762;54.480;18.556;2022-07-24T12:19:58;3.35;;;1.77;;
35188;SDS011;21762;54.480;18.556;2022-07-24T12:22:29;3.38;;;2.00;;
35188;SDS011;21762;54.480;18.556;2022-07-24T12:24:57;5.50;;;2.17;;
35188;SDS011;21762;54.480;18.556;2022-07-24T12:27:32;3.10;;;1.75;;
35188;SDS011;21762;54.480;18.556;2022-07-24T12:30:15;3.78;;;2.13;;
35188;SDS011;21762;54.480;18.556;2022-07-24T12:32:58;5.72;;;1.98;;
35188;SDS011;21762;54.480;18.556;2022-07-24T12:35:28;4.40;;;1.80;;
35188;SDS011;21762;54.480;18.556;2022-07-24T12:38:02;3.78;;;1.73;;
35188;SDS011;21762;54.480;18.556;2022-07-24T12:40:31;4.10;;;2.10;;
35188;SDS011;21762;54.480;18.556;2022-07-24T12:43:03;2.10;;;1.65;;
35188;SDS011;21762;54.480;18.556;2022-07-24T12:45:35;3.88;;;1.90;;
35188;SDS011;21762;54.480;18.556;2022-07-24T12:48:05;5.35;;;2.03;;
35188;SDS011;21762;54.480;18.556;2022-07-24T12:53:41;3.90;;;1.73;;
35188;SDS011;21762;54.480;18.556;2022-07-24T12:56:11;1.33;;;1.23;;
35188;SDS011;21762;54.480;18.556;2022-07-24T12:58:48;2.60;;;1.60;;
35188;SDS011;21762;54.480;18.556;2022-07-24T13:01:17;2.45;;;1.70;;
35188;SDS011;21762;54.480;18.556;2022-07-24T13:03:58;3.25;;;1.88;;
35188;SDS011;21762;54.480;18.556;2022-07-24T13:09:04;3.42;;;1.45;;
35188;SDS011;21762;54.480;18.556;2022-07-24T13:11:34;2.75;;;1.80;;
35188;SDS011;21762;54.480;18.556;2022-07-24T13:14:03;1.90;;;1.67;;
35188;SDS011;21762;54.480;18.556;2022-07-24T13:16:33;4.20;;;1.67;;
35188;SDS011;21762;54.480;18.556;2022-07-24T13:19:03;3.53;;;1.90;;
35188;SDS011;21762;54.480;18.556;2022-07-24T13:21:32;2.92;;;1.65;;
35188;SDS011;21762;54.480;18.556;2022-07-24T13:24:00;2.28;;;1.50;;
35188;SDS011;21762;54.480;18.556;2022-07-24T13:26:30;4.20;;;1.92;;
35188;SDS011;21762;54.480;18.556;2022-07-24T13:28:58;3.85;;;2.03;;
35188;SDS011;21762;54.480;18.556;2022-07-24T13:31:27;2.33;;;1.52;;
35188;SDS011;21762;54.480;18.556;2022-07-24T13:33:55;5.90;;;2.10;;
35188;SDS011;21762;54.480;18.556;2022-07-24T13:36:23;4.45;;;1.92;;
35188;SDS011;21762;54.480;18.556;2022-07-24T13:38:51;2.78;;;1.75;;
35188;SDS011;21762;54.480;18.556;2022-07-24T13:41:20;5.35;;;2.05;;
35188;SDS011;21762;54.480;18.556;2022-07-24T13:43:50;2.78;;;1.80;;
35188;SDS011;21762;54.480;18.556;2022-07-24T13:46:18;4.40;;;2.20;;
35188;SDS011;21762;54.480;18.556;2022-07-24T13:48:47;3.45;;;1.95;;
35188;SDS011;21762;54.480;18.556;2022-07-24T13:51:17;4.18;;;1.80;;
35188;SDS011;21762;54.480;18.556;2022-07-24T13:53:48;2.05;;;1.80;;
35188;SDS011;21762;54.480;18.556;2022-07-24T13:56:16;3.03;;;1.92;;
35188;SDS011;21762;54.480;18.556;2022-07-24T13:58:44;4.93;;;1.73;;
35188;SDS011;21762;54.480;18.556;2022-07-24T14:01:14;2.33;;;1.35;;
35188;SDS011;21762;54.480;18.556;2022-07-24T14:03:44;2.75;;;1.73;;
35188;SDS011;21762;54.480;18.556;2022-07-24T14:06:21;1.63;;;1.38;;
35188;SDS011;21762;54.480;18.556;2022-07-24T14:08:49;2.78;;;1.73;;
35188;SDS011;21762;54.480;18.556;2022-07-24T14:11:18;3.97;;;1.45;;
35188;SDS011;21762;54.480;18.556;2022-07-24T14:13:46;2.90;;;1.75;;
35188;SDS011;21762;54.480;18.556;2022-07-24T14:16:15;3.08;;;1.90;;
35188;SDS011;21762;54.480;18.556;2022-07-24T14:18:44;3.25;;;1.83;;
35188;SDS011;21762;54.480;18.556;2022-07-24T14:21:12;3.00;;;1.90;;
35188;SDS011;21762;54.480;18.556;2022-07-24T14:23:41;2.60;;;1.70;;
35188;SDS011;21762;54.480;18.556;2022-07-24T14:26:09;3.75;;;1.70;;
35188;SDS011;21762;54.480;18.556;2022-07-24T14:28:37;5.20;;;2.05;;
35188;SDS011;21762;54.480;18.556;2022-07-24T14:31:05;2.88;;;2.13;;
35188;SDS011;21762;54.480;18.556;2022-07-24T14:33:35;3.33;;;1.85;;
35188;SDS011;21762;54.480;18.556;2022-07-24T14:36:03;4.20;;;2.10;;
35188;SDS011;21762;54.480;18.556;2022-07-24T14:38:32;4.22;;;2.03;;
35188;SDS011;21762;54.480;18.556;2022-07-24T14:41:01;3.67;;;2.22;;
35188;SDS011;21762;54.480;18.556;2022-07-24T14:43:29;6.78;;;2.15;;
35188;SDS011;21762;54.480;18.556;2022-07-24T14:45:57;8.35;;;3.28;;
35188;SDS011;21762;54.480;18.556;2022-07-24T14:48:25;3.42;;;2.30;;
35188;SDS011;21762;54.480;18.556;2022-07-24T14:50:55;3.60;;;2.22;;
35188;SDS011;21762;54.480;18.556;2022-07-24T14:53:23;2.97;;;2.25;;
35188;SDS011;21762;54.480;18.556;2022-07-24T14:55:51;4.00;;;2.30;;
35188;SDS011;21762;54.480;18.556;2022-07-24T14:58:19;8.93;;;2.92;;
35188;SDS011;21762;54.480;18.556;2022-07-24T15:00:47;5.75;;;2.40;;
35188;SDS011;21762;54.480;18.556;2022-07-24T15:03:15;6.50;;;2.58;;
35188;SDS011;21762;54.480;18.556;2022-07-24T15:05:43;7.05;;;2.70;;
35188;SDS011;21762;54.480;18.556;2022-07-24T15:08:13;5.43;;;2.70;;